createdAt,value
2023-05-20T00:01:47.289Z,15.30
2023-05-20T00:04:20.437Z,15.30
2023-05-20T00:06:54.702Z,15.30
2023-05-20T00:09:27.973Z,15.30
2023-05-20T00:12:01.614Z,15.20
2023-05-20T00:14:34.783Z,15.20
2023-05-20T00:17:07.827Z,15.20
2023-05-20T00:19:41.015Z,15.20
2023-05-20T00:22:13.892Z,15.20
2023-05-20T00:24:46.798Z,15.10
2023-05-20T00:27:19.844Z,15.10
2023-05-20T00:29:52.776Z,15.10
2023-05-20T00:32:25.958Z,15.10
2023-05-20T00:34:59.920Z,15.10
2023-05-20T00:37:32.794Z,15.10
2023-05-20T00:40:06.646Z,15.00
2023-05-20T00:42:39.696Z,15.00
2023-05-20T00:45:12.708Z,14.90
2023-05-20T00:47:46.019Z,14.90
2023-05-20T00:50:19.276Z,14.90
2023-05-20T00:52:52.420Z,14.90
2023-05-20T00:55:26.002Z,14.90
2023-05-20T00:57:59.025Z,14.90
2023-05-20T01:00:32.235Z,14.90
2023-05-20T01:03:06.134Z,14.90
2023-05-20T01:05:42.034Z,14.90
2023-05-20T01:08:15.662Z,14.90
2023-05-20T01:10:55.114Z,14.90
2023-05-20T01:13:35.008Z,14.90
2023-05-20T01:16:10.482Z,14.80
2023-05-20T01:18:44.306Z,14.80
2023-05-20T01:21:18.612Z,14.80
2023-05-20T01:23:51.728Z,14.80
2023-05-20T01:26:27.454Z,14.80
2023-05-20T01:29:04.538Z,14.80
2023-05-20T01:31:39.292Z,14.80
2023-05-20T01:34:13.199Z,14.80
2023-05-20T01:36:47.257Z,14.80
2023-05-20T01:39:20.537Z,14.80
2023-05-20T01:41:54.635Z,14.80
2023-05-20T01:44:27.778Z,14.80
2023-05-20T01:47:01.856Z,14.80
2023-05-20T01:49:34.826Z,14.80
2023-05-20T01:52:07.838Z,14.80
2023-05-20T01:54:42.085Z,14.80
2023-05-20T01:57:15.008Z,14.80
2023-05-20T01:59:48.817Z,14.70
2023-05-20T02:02:21.917Z,14.70
2023-05-20T02:04:54.760Z,14.70
2023-05-20T02:07:27.856Z,14.80
2023-05-20T02:10:00.746Z,14.80
2023-05-20T02:12:34.760Z,14.80
2023-05-20T02:15:08.021Z,14.80
2023-05-20T02:17:43.885Z,14.80
2023-05-20T02:20:16.903Z,14.80
2023-05-20T02:22:49.841Z,14.80
2023-05-20T02:25:22.947Z,14.80
2023-05-20T02:27:56.005Z,14.80
2023-05-20T02:30:28.795Z,14.80
2023-05-20T02:33:02.908Z,14.70
2023-05-20T02:35:36.056Z,14.70
2023-05-20T02:38:09.110Z,14.70
2023-05-20T02:40:46.062Z,14.70
2023-05-20T02:43:19.182Z,14.60
2023-05-20T02:45:52.176Z,14.60
2023-05-20T02:48:25.548Z,14.50
2023-05-20T02:51:01.923Z,14.60
2023-05-20T02:53:35.163Z,14.60
2023-05-20T02:56:08.934Z,14.50
2023-05-20T02:58:42.634Z,14.50
2023-05-20T03:01:15.808Z,14.40
2023-05-20T03:03:49.144Z,14.40
2023-05-20T03:06:22.004Z,14.40
2023-05-20T03:08:56.044Z,14.40
2023-05-20T03:11:29.209Z,14.40
2023-05-20T03:14:02.251Z,14.30
2023-05-20T03:16:36.810Z,14.30
2023-05-20T03:19:10.456Z,14.30
2023-05-20T03:21:43.823Z,14.30
2023-05-20T03:24:17.031Z,14.30
2023-05-20T03:26:52.545Z,14.40
2023-05-20T03:29:25.842Z,14.30
2023-05-20T03:31:59.089Z,14.30
2023-05-20T03:34:32.290Z,14.20
2023-05-20T03:37:06.742Z,14.30
2023-05-20T03:39:39.736Z,14.30
2023-05-20T03:42:12.728Z,14.20
2023-05-20T03:44:45.861Z,14.30
2023-05-20T03:47:19.896Z,14.30
2023-05-20T03:49:53.238Z,14.30
2023-05-20T03:52:26.258Z,14.30
2023-05-20T03:54:59.830Z,14.20
2023-05-20T03:57:33.094Z,14.20
2023-05-20T04:00:11.906Z,14.20
2023-05-20T04:02:49.099Z,14.30
2023-05-20T04:05:25.120Z,14.20
2023-05-20T04:07:58.507Z,14.20
2023-05-20T04:10:33.340Z,14.10
2023-05-20T04:13:06.468Z,14.20
2023-05-20T04:15:39.708Z,14.20
2023-05-20T04:18:13.328Z,14.20
2023-05-20T04:20:47.675Z,14.20
2023-05-20T04:23:21.416Z,14.20
2023-05-20T04:25:55.205Z,14.20
2023-05-20T04:28:31.549Z,14.10
2023-05-20T04:31:05.084Z,14.10
2023-05-20T04:33:41.009Z,14.10
2023-05-20T04:36:16.346Z,14.10
2023-05-20T04:38:49.849Z,14.10
2023-05-20T04:41:23.114Z,14.10
2023-05-20T04:43:59.999Z,14.00
2023-05-20T04:46:34.174Z,14.10
2023-05-20T04:49:07.502Z,14.00
2023-05-20T04:51:41.863Z,14.10
2023-05-20T04:54:14.665Z,14.10
2023-05-20T04:56:47.899Z,14.10
2023-05-20T04:59:21.075Z,14.00
2023-05-20T05:01:54.296Z,14.00
2023-05-20T05:04:27.388Z,13.90
2023-05-20T05:07:00.457Z,14.00
2023-05-20T05:09:34.897Z,13.90
2023-05-20T05:12:08.434Z,13.90
2023-05-20T05:14:41.470Z,13.90
2023-05-20T05:17:15.064Z,13.90
2023-05-20T05:19:47.909Z,14.00
2023-05-20T05:22:20.859Z,14.10
2023-05-20T05:24:55.756Z,14.20
2023-05-20T05:27:28.737Z,14.20
2023-05-20T05:30:06.423Z,14.30
2023-05-20T05:32:39.659Z,14.20
2023-05-20T05:35:12.813Z,14.20
2023-05-20T05:37:46.059Z,14.20
2023-05-20T05:40:19.034Z,14.20
2023-05-20T05:42:52.787Z,14.20
2023-05-20T05:45:25.774Z,14.30
2023-05-20T05:47:59.121Z,14.20
2023-05-20T05:50:32.582Z,14.20
2023-05-20T05:53:05.797Z,14.20
2023-05-20T05:55:39.344Z,14.10
2023-05-20T05:58:13.159Z,14.20
2023-05-20T06:00:46.224Z,14.10
2023-05-20T06:03:19.607Z,14.20
2023-05-20T06:05:52.623Z,14.20
2023-05-20T06:08:26.936Z,14.30
2023-05-20T06:11:00.086Z,14.30
2023-05-20T06:13:32.993Z,14.30
2023-05-20T06:16:05.926Z,14.30
2023-05-20T06:18:39.322Z,14.30
2023-05-20T06:21:12.292Z,14.30
2023-05-20T06:23:46.057Z,14.40
2023-05-20T06:26:19.822Z,14.40
2023-05-20T06:28:53.589Z,14.40
2023-05-20T06:31:26.713Z,14.40
2023-05-20T06:33:59.628Z,14.40
2023-05-20T06:36:33.763Z,14.50
2023-05-20T06:39:12.202Z,14.50
2023-05-20T06:41:46.780Z,14.50
2023-05-20T06:44:29.779Z,14.70
2023-05-20T06:47:07.867Z,14.80
2023-05-20T06:49:46.590Z,14.90
2023-05-20T06:52:20.643Z,15.00
2023-05-20T06:54:53.641Z,15.10
2023-05-20T06:57:26.913Z,15.30
2023-05-20T07:00:00.106Z,15.40
2023-05-20T07:02:34.176Z,15.50
2023-05-20T07:05:07.796Z,15.60
2023-05-20T07:07:41.084Z,15.70
2023-05-20T07:10:16.389Z,15.80
2023-05-20T07:12:49.341Z,16.00
2023-05-20T07:15:22.287Z,16.20
2023-05-20T07:17:55.256Z,16.30
2023-05-20T07:20:29.341Z,16.50
2023-05-20T07:23:04.127Z,16.50
2023-05-20T07:25:43.689Z,16.70
2023-05-20T07:28:17.747Z,16.90
2023-05-20T07:30:51.433Z,16.90
2023-05-20T07:33:30.699Z,17.20
2023-05-20T07:36:04.493Z,17.30
2023-05-20T07:38:38.562Z,17.30
2023-05-20T07:41:14.466Z,17.30
2023-05-20T07:43:47.537Z,17.10
2023-05-20T07:46:20.639Z,17.00
2023-05-20T07:48:53.809Z,17.00
2023-05-20T07:51:27.153Z,16.80
2023-05-20T07:54:00.634Z,16.70
2023-05-20T07:56:34.242Z,16.70
2023-05-20T07:59:07.398Z,16.70
2023-05-20T08:01:46.238Z,16.80
2023-05-20T08:04:21.630Z,17.00
2023-05-20T08:06:55.839Z,17.20
2023-05-20T08:09:39.227Z,17.30
2023-05-20T08:12:12.457Z,17.30
2023-05-20T08:14:46.206Z,17.30
2023-05-20T08:17:19.247Z,17.30
2023-05-20T08:20:01.761Z,17.10
2023-05-20T08:22:38.047Z,17.10
2023-05-20T08:25:11.036Z,17.00
2023-05-20T08:27:44.324Z,17.00
2023-05-20T08:30:18.578Z,17.00
2023-05-20T08:32:51.672Z,17.20
2023-05-20T08:35:24.919Z,17.50
2023-05-20T08:37:58.660Z,17.60
2023-05-20T08:40:31.826Z,17.80
2023-05-20T08:43:05.245Z,17.80
2023-05-20T08:45:39.394Z,17.90
2023-05-20T08:48:18.330Z,18.00
2023-05-20T08:50:52.205Z,18.20
2023-05-20T08:53:26.059Z,18.40
2023-05-20T08:56:03.828Z,18.40
2023-05-20T08:58:37.503Z,18.40
2023-05-20T09:01:10.300Z,18.40
2023-05-20T09:03:43.638Z,18.40
2023-05-20T09:06:20.156Z,18.50
2023-05-20T09:08:53.080Z,18.60
2023-05-20T09:11:27.467Z,18.60
2023-05-20T09:14:00.605Z,18.50
2023-05-20T09:16:33.992Z,18.50
2023-05-20T09:19:10.009Z,18.70
2023-05-20T09:21:43.171Z,18.90
2023-05-20T09:24:16.065Z,18.90
2023-05-20T09:26:49.049Z,19.00
2023-05-20T09:29:22.242Z,19.10
2023-05-20T09:31:56.545Z,19.30
2023-05-20T09:34:29.939Z,19.40
2023-05-20T09:37:03.532Z,19.40
2023-05-20T09:39:52.061Z,19.40
2023-05-20T09:42:35.310Z,19.60
2023-05-20T09:45:11.499Z,19.70
2023-05-20T09:47:48.285Z,19.60
2023-05-20T09:50:23.653Z,19.60
2023-05-20T09:52:56.878Z,19.70
2023-05-20T09:55:30.820Z,19.60
2023-05-20T09:58:03.754Z,19.60
2023-05-20T10:00:36.783Z,19.80
2023-05-20T10:03:10.079Z,19.50
2023-05-20T10:05:56.187Z,19.50
2023-05-20T10:08:50.748Z,19.60
2023-05-20T10:11:38.190Z,19.50
2023-05-20T10:14:40.775Z,19.40
2023-05-20T10:17:40.589Z,19.50
2023-05-20T10:20:13.885Z,19.70
2023-05-20T10:22:57.300Z,19.80
2023-05-20T10:25:30.231Z,19.90
2023-05-20T10:28:09.331Z,20.10
2023-05-20T10:30:50.510Z,20.30
2023-05-20T10:33:23.692Z,20.60
2023-05-20T10:36:01.203Z,20.80
2023-05-20T10:38:34.492Z,21.10
2023-05-20T10:41:13.950Z,21.40
2023-05-20T10:43:47.036Z,21.50
2023-05-20T10:46:31.843Z,21.30
2023-05-20T10:49:06.128Z,21.20
2023-05-20T10:51:39.348Z,21.20
2023-05-20T10:54:12.768Z,21.30
2023-05-20T10:56:53.661Z,21.70
2023-05-20T10:59:27.025Z,21.80
2023-05-20T11:02:01.373Z,21.80
2023-05-20T11:04:34.835Z,21.90
2023-05-20T11:07:07.739Z,21.90
2023-05-20T11:09:50.499Z,21.90
2023-05-20T11:12:24.881Z,21.80
2023-05-20T11:14:58.055Z,21.90
2023-05-20T11:17:31.580Z,22.20
2023-05-20T11:20:05.004Z,21.90
2023-05-20T11:22:40.345Z,21.30
2023-05-20T11:25:13.274Z,21.20
2023-05-20T11:27:46.402Z,21.40
2023-05-20T11:30:20.646Z,21.40
2023-05-20T11:33:01.514Z,21.00
2023-05-20T11:35:34.511Z,21.20
2023-05-20T11:38:10.211Z,21.10
2023-05-20T11:40:51.000Z,21.00
2023-05-20T11:43:24.944Z,20.80
2023-05-20T11:46:01.821Z,20.90
2023-05-20T11:48:34.923Z,21.10
2023-05-20T11:51:08.895Z,21.00
2023-05-20T11:53:42.031Z,20.90
2023-05-20T11:56:14.990Z,20.60
2023-05-20T11:58:48.058Z,20.70
2023-05-20T12:01:22.681Z,20.60
2023-05-20T12:03:56.466Z,20.50
2023-05-20T12:06:29.426Z,20.50
2023-05-20T12:09:07.324Z,20.40
2023-05-20T12:11:41.559Z,20.40
2023-05-20T12:14:15.123Z,20.60
2023-05-20T12:16:48.075Z,20.90
2023-05-20T12:19:21.188Z,20.80
2023-05-20T12:21:54.170Z,20.50
2023-05-20T12:24:26.942Z,20.60
2023-05-20T12:26:59.975Z,20.60
2023-05-20T12:29:33.481Z,20.70
2023-05-20T12:32:07.047Z,20.60
2023-05-20T12:34:39.961Z,20.50
2023-05-20T12:37:13.046Z,20.40
2023-05-20T12:39:46.933Z,20.30
2023-05-20T12:42:20.062Z,20.30
2023-05-20T12:44:52.948Z,20.20
2023-05-20T12:47:26.375Z,20.20
2023-05-20T12:49:59.793Z,20.30
2023-05-20T12:52:32.912Z,20.50
2023-05-20T12:55:13.842Z,20.40
2023-05-20T12:57:47.435Z,20.40
2023-05-20T13:00:20.541Z,20.60
2023-05-20T13:02:54.740Z,20.80
2023-05-20T13:05:28.055Z,20.80
2023-05-20T13:08:01.033Z,20.70
2023-05-20T13:10:34.192Z,20.70
2023-05-20T13:13:07.465Z,20.80
2023-05-20T13:15:40.577Z,20.80
2023-05-20T13:18:15.498Z,20.80
2023-05-20T13:20:48.844Z,20.90
2023-05-20T13:23:22.102Z,20.90
2023-05-20T13:25:54.951Z,20.90
2023-05-20T13:28:28.228Z,20.90
2023-05-20T13:31:07.152Z,20.90
2023-05-20T13:33:40.355Z,20.90
2023-05-20T13:36:13.519Z,20.90
2023-05-20T13:38:46.496Z,20.90
2023-05-20T13:41:19.525Z,20.90
2023-05-20T13:43:52.570Z,21.00
2023-05-20T13:46:25.370Z,21.20
2023-05-20T13:48:58.545Z,21.20
2023-05-20T13:51:31.761Z,21.20
2023-05-20T13:54:06.740Z,21.30
2023-05-20T13:56:40.288Z,21.40
2023-05-20T13:59:13.335Z,21.30
2023-05-20T14:01:46.700Z,21.10
2023-05-20T14:04:19.826Z,21.00
2023-05-20T14:06:52.834Z,21.00
2023-05-20T14:09:25.574Z,21.10
2023-05-20T14:11:58.640Z,21.00
2023-05-20T14:14:31.912Z,20.90
2023-05-20T14:17:04.872Z,20.90
2023-05-20T14:19:37.995Z,20.80
2023-05-20T14:22:12.287Z,20.80
2023-05-20T14:24:45.459Z,20.80
2023-05-20T14:27:18.256Z,20.70
2023-05-20T14:29:51.359Z,20.80
2023-05-20T14:32:24.202Z,20.80
2023-05-20T14:34:57.188Z,20.90
2023-05-20T14:37:30.090Z,21.00
2023-05-20T14:40:05.522Z,21.00
2023-05-20T14:42:38.728Z,20.90
2023-05-20T14:45:11.983Z,20.90
2023-05-20T14:47:45.255Z,20.80
2023-05-20T14:50:18.626Z,20.80
2023-05-20T14:52:51.481Z,20.90
2023-05-20T14:55:24.361Z,20.80
2023-05-20T14:57:57.172Z,20.80
2023-05-20T15:00:30.339Z,20.80
2023-05-20T15:03:03.380Z,20.80
2023-05-20T15:05:36.580Z,20.70
2023-05-20T15:08:09.562Z,20.80
2023-05-20T15:10:43.220Z,20.80
2023-05-20T15:13:16.114Z,20.90
2023-05-20T15:15:49.050Z,20.90
2023-05-20T15:18:22.334Z,20.80
2023-05-20T15:20:55.084Z,20.70
2023-05-20T15:23:28.174Z,20.80
2023-05-20T15:26:01.673Z,20.80
2023-05-20T15:28:34.459Z,20.70
2023-05-20T15:31:07.733Z,20.60
2023-05-20T15:33:40.978Z,20.50
2023-05-20T15:36:14.301Z,20.40
2023-05-20T15:38:47.351Z,20.30
2023-05-20T15:41:21.906Z,20.30
2023-05-20T15:43:54.811Z,20.30
2023-05-20T15:46:27.919Z,20.30
2023-05-20T15:49:01.028Z,20.30
2023-05-20T15:51:33.917Z,20.20
2023-05-20T15:54:07.107Z,20.10
2023-05-20T15:56:40.354Z,20.10
2023-05-20T15:59:13.333Z,20.10
2023-05-20T16:01:46.360Z,20.00
2023-05-20T16:04:19.516Z,20.10
2023-05-20T16:06:52.578Z,20.10
2023-05-20T16:09:25.772Z,20.10
2023-05-20T16:11:58.949Z,20.00
2023-05-20T16:14:31.751Z,20.00
2023-05-20T16:17:04.990Z,20.00
2023-05-20T16:19:37.915Z,20.00
2023-05-20T16:22:11.232Z,20.00
2023-05-20T16:24:44.367Z,20.00
2023-05-20T16:27:17.546Z,20.00
2023-05-20T16:29:50.674Z,20.00
2023-05-20T16:32:23.868Z,20.00
2023-05-20T16:34:57.165Z,20.00
2023-05-20T16:37:30.345Z,20.00
2023-05-20T16:40:04.390Z,19.90
2023-05-20T16:42:38.598Z,19.90
2023-05-20T16:45:12.158Z,19.90
2023-05-20T16:47:45.284Z,19.90
2023-05-20T16:50:18.620Z,19.90
2023-05-20T16:52:51.925Z,19.90
2023-05-20T16:55:24.824Z,19.80
2023-05-20T16:57:57.710Z,19.80
2023-05-20T17:00:30.536Z,19.80
2023-05-20T17:03:03.955Z,19.80
2023-05-20T17:05:36.800Z,19.70
2023-05-20T17:08:09.814Z,19.60
2023-05-20T17:10:42.615Z,19.60
2023-05-20T17:13:16.122Z,19.50
2023-05-20T17:15:48.891Z,19.50
2023-05-20T17:18:21.776Z,19.40
2023-05-20T17:20:54.783Z,19.40
2023-05-20T17:23:27.765Z,19.40
2023-05-20T17:26:00.650Z,19.30
2023-05-20T17:28:34.008Z,19.30
2023-05-20T17:31:08.806Z,19.30
2023-05-20T17:33:41.683Z,19.30
2023-05-20T17:36:16.104Z,19.30
2023-05-20T17:38:49.982Z,19.20
2023-05-20T17:41:23.120Z,19.20
2023-05-20T17:43:56.871Z,19.10
2023-05-20T17:46:30.132Z,19.10
2023-05-20T17:49:03.094Z,19.10
2023-05-20T17:51:36.353Z,19.00
2023-05-20T17:54:09.255Z,19.00
2023-05-20T17:56:44.550Z,18.90
2023-05-20T17:59:17.776Z,18.90
2023-05-20T18:01:51.161Z,18.90
2023-05-20T18:04:24.136Z,18.90
2023-05-20T18:06:57.040Z,18.80
2023-05-20T18:09:30.701Z,18.80
2023-05-20T18:12:03.662Z,18.80
2023-05-20T18:14:36.592Z,18.80
2023-05-20T18:17:09.362Z,18.80
2023-05-20T18:19:42.275Z,18.70
2023-05-20T18:22:16.120Z,18.70
2023-05-20T18:24:49.245Z,18.70
2023-05-20T18:27:22.441Z,18.60
2023-05-20T18:29:55.769Z,18.50
2023-05-20T18:32:28.875Z,18.50
2023-05-20T18:35:02.102Z,18.50
2023-05-20T18:37:34.938Z,18.40
2023-05-20T18:40:10.402Z,18.40
2023-05-20T18:42:43.445Z,18.40
2023-05-20T18:45:16.808Z,18.30
2023-05-20T18:47:50.019Z,18.30
2023-05-20T18:50:22.986Z,18.20
2023-05-20T18:52:56.012Z,18.10
2023-05-20T18:55:29.078Z,18.10
2023-05-20T18:58:01.959Z,18.00
2023-05-20T19:00:35.278Z,18.00
2023-05-20T19:03:08.585Z,17.90
2023-05-20T19:05:41.607Z,17.90
2023-05-20T19:08:14.834Z,17.90
2023-05-20T19:10:48.052Z,17.90
2023-05-20T19:13:21.860Z,17.80
2023-05-20T19:15:54.793Z,17.80
2023-05-20T19:18:30.584Z,17.70
2023-05-20T19:21:03.662Z,17.70
2023-05-20T19:23:37.132Z,17.60
2023-05-20T19:26:10.180Z,17.60
2023-05-20T19:28:43.327Z,17.50
2023-05-20T19:31:21.048Z,17.60
2023-05-20T19:34:14.118Z,17.50
2023-05-20T19:36:47.214Z,17.50
2023-05-20T19:39:20.520Z,17.40
2023-05-20T19:41:53.708Z,17.40
2023-05-20T19:44:26.498Z,17.40
2023-05-20T19:46:59.574Z,17.40
2023-05-20T19:49:33.034Z,17.30
2023-05-20T19:52:07.078Z,17.30
2023-05-20T19:54:41.918Z,17.30
2023-05-20T19:57:14.874Z,17.20
2023-05-20T19:59:47.652Z,17.20
2023-05-20T20:02:20.611Z,17.10
2023-05-20T20:04:55.097Z,17.10
2023-05-20T20:07:28.063Z,17.10
2023-05-20T20:10:00.900Z,17.10
2023-05-20T20:12:34.091Z,17.00
2023-05-20T20:15:09.153Z,17.00
2023-05-20T20:17:46.059Z,17.00
2023-05-20T20:20:19.858Z,16.90
2023-05-20T20:22:53.047Z,16.90
2023-05-20T20:25:27.018Z,16.90
2023-05-20T20:28:00.731Z,16.90
2023-05-20T20:30:33.980Z,16.90
2023-05-20T20:33:09.334Z,16.90
2023-05-20T20:35:42.798Z,16.80
2023-05-20T20:38:16.053Z,16.80
2023-05-20T20:40:49.826Z,16.70
2023-05-20T20:43:22.968Z,16.70
2023-05-20T20:45:56.828Z,16.70
2023-05-20T20:48:29.708Z,16.70
2023-05-20T20:51:02.649Z,16.60
2023-05-20T20:53:35.828Z,16.60
2023-05-20T20:56:09.659Z,16.60
2023-05-20T20:58:42.587Z,16.50
2023-05-20T21:01:17.647Z,16.50
2023-05-20T21:03:54.450Z,16.50
2023-05-20T21:06:27.673Z,16.50
2023-05-20T21:09:02.373Z,16.50
2023-05-20T21:11:38.583Z,16.40
2023-05-20T21:14:14.309Z,16.40
2023-05-20T21:16:47.301Z,16.40
2023-05-20T21:19:21.447Z,16.40
2023-05-20T21:21:54.278Z,16.40
2023-05-20T21:24:27.183Z,16.40
2023-05-20T21:27:00.007Z,16.40
2023-05-20T21:29:34.230Z,16.40
2023-05-20T21:32:07.523Z,16.40
2023-05-20T21:34:40.569Z,16.30
2023-05-20T21:37:13.410Z,16.30
2023-05-20T21:39:46.357Z,16.30
2023-05-20T21:42:19.205Z,16.30
2023-05-20T21:44:52.262Z,16.20
2023-05-20T21:47:25.262Z,16.20
2023-05-20T21:49:58.505Z,16.20
2023-05-20T21:52:31.383Z,16.20
2023-05-20T21:55:04.455Z,16.20
2023-05-20T21:57:37.676Z,16.20
2023-05-20T22:00:11.891Z,16.20
2023-05-20T22:02:45.881Z,16.20
2023-05-20T22:05:19.785Z,16.20
2023-05-20T22:07:53.160Z,16.20
2023-05-20T22:10:26.885Z,16.20
2023-05-20T22:13:02.270Z,16.20
2023-05-20T22:15:35.430Z,16.10
2023-05-20T22:18:09.617Z,16.10
2023-05-20T22:20:42.730Z,16.10
2023-05-20T22:23:16.255Z,16.10
2023-05-20T22:25:49.510Z,16.10
2023-05-20T22:28:23.710Z,16.10
2023-05-20T22:30:56.725Z,16.10
2023-05-20T22:33:29.755Z,16.00
2023-05-20T22:36:02.957Z,16.00
2023-05-20T22:38:35.920Z,16.00
2023-05-20T22:41:09.384Z,16.00
2023-05-20T22:43:42.243Z,16.00
2023-05-20T22:46:15.133Z,16.00
2023-05-20T22:48:48.248Z,16.00
2023-05-20T22:51:23.625Z,16.00
2023-05-20T22:53:56.850Z,16.00
2023-05-20T22:56:29.785Z,16.10
2023-05-20T22:59:03.151Z,16.00
2023-05-20T23:01:36.637Z,16.00
2023-05-20T23:04:09.764Z,16.10
2023-05-20T23:06:43.242Z,16.00
2023-05-20T23:09:16.476Z,16.00
2023-05-20T23:11:49.375Z,16.00
2023-05-20T23:14:22.536Z,16.00
2023-05-20T23:16:55.503Z,16.00
2023-05-20T23:19:28.419Z,16.00
2023-05-20T23:22:01.716Z,16.00
2023-05-20T23:24:35.072Z,15.90
2023-05-20T23:27:08.998Z,15.90
2023-05-20T23:29:43.472Z,15.90
2023-05-20T23:32:16.684Z,15.90
2023-05-20T23:34:51.306Z,15.90
2023-05-20T23:37:24.316Z,15.80
2023-05-20T23:39:57.089Z,15.80
2023-05-20T23:42:31.586Z,15.80
2023-05-20T23:45:06.322Z,15.80
2023-05-20T23:47:39.314Z,15.80
2023-05-20T23:50:13.766Z,15.80
2023-05-20T23:52:48.210Z,15.80
2023-05-20T23:55:21.498Z,15.80
2023-05-20T23:57:54.732Z,15.70
